createdAt,value
2019-05-09T00:00:15.576Z,981.6
2019-05-09T00:03:15.882Z,981.6
2019-05-09T00:06:15.715Z,981.6
2019-05-09T00:09:15.297Z,981.6
2019-05-09T00:12:15.703Z,981.6
2019-05-09T00:15:15.426Z,981.6
2019-05-09T00:18:15.403Z,981.6
2019-05-09T00:21:15.125Z,981.6
2019-05-09T00:24:15.662Z,981.6
2019-05-09T00:27:15.491Z,981.5
2019-05-09T00:30:20.455Z,981.6
2019-05-09T00:33:15.042Z,981.6
2019-05-09T00:36:15.930Z,981.6
2019-05-09T00:39:15.726Z,981.5
2019-05-09T00:42:15.208Z,981.4
2019-05-09T00:45:15.700Z,981.4
2019-05-09T00:48:15.587Z,981.4
2019-05-09T00:51:15.325Z,981.4
2019-05-09T00:54:14.919Z,981.5
2019-05-09T00:57:15.508Z,981.4
2019-05-09T01:00:15.740Z,981.4
2019-05-09T01:03:15.593Z,981.4
2019-05-09T01:06:15.599Z,981.5
2019-05-09T01:09:14.937Z,981.4
2019-05-09T01:12:15.845Z,981.5
2019-05-09T01:15:15.220Z,981.4
2019-05-09T01:18:15.748Z,981.3
2019-05-09T01:21:15.307Z,981.2
2019-05-09T01:24:15.741Z,981.3
2019-05-09T01:27:15.170Z,981.3
2019-05-09T01:30:15.600Z,981.2
2019-05-09T01:33:15.814Z,981.3
2019-05-09T01:36:15.093Z,981.3
2019-05-09T01:39:15.219Z,981.3
2019-05-09T01:42:15.794Z,981.2
2019-05-09T01:45:15.313Z,981.2
2019-05-09T01:48:14.877Z,981.2
2019-05-09T01:51:15.379Z,981.2
2019-05-09T01:54:14.843Z,981.1
2019-05-09T01:57:15.433Z,981.2
2019-05-09T02:00:15.086Z,981.2
2019-05-09T02:03:15.437Z,981.2
2019-05-09T02:06:15.917Z,981.2
2019-05-09T02:09:15.523Z,981.2
2019-05-09T02:12:15.630Z,981.2
2019-05-09T02:15:15.217Z,981.2
2019-05-09T02:18:16.159Z,981.2
2019-05-09T02:21:15.807Z,981.2
2019-05-09T02:24:15.633Z,981.2
2019-05-09T02:27:15.106Z,981.2
2019-05-09T02:30:15.763Z,981.2
2019-05-09T02:33:15.419Z,981.2
2019-05-09T02:36:18.888Z,981.2
2019-05-09T02:39:18.652Z,981.2
2019-05-09T02:42:19.102Z,981.3
2019-05-09T02:45:15.060Z,981.2
2019-05-09T02:48:18.381Z,981.2
2019-05-09T02:51:18.216Z,981.2
2019-05-09T02:54:18.708Z,981.3
2019-05-09T02:57:18.210Z,981.3
2019-05-09T03:00:15.144Z,981.3
2019-05-09T03:03:15.197Z,981.2
2019-05-09T03:06:15.143Z,981.2
2019-05-09T03:09:15.114Z,981.2
2019-05-09T03:12:29.843Z,981.2
2019-05-09T03:15:18.400Z,981.2
2019-05-09T03:18:18.133Z,981.2
2019-05-09T03:21:15.110Z,981.2
2019-05-09T03:24:18.263Z,981.2
2019-05-09T03:27:14.985Z,981.2
2019-05-09T03:30:20.397Z,981.2
2019-05-09T03:33:15.362Z,981.2
2019-05-09T03:36:15.011Z,981.2
2019-05-09T03:39:15.573Z,981.1
2019-05-09T03:42:18.108Z,981.1
2019-05-09T03:45:14.899Z,981.2
2019-05-09T03:48:17.435Z,981.1
2019-05-09T03:51:18.222Z,981.1
2019-05-09T03:54:14.932Z,981.0
2019-05-09T03:57:17.856Z,981.0
2019-05-09T04:00:17.925Z,981.0
2019-05-09T04:03:15.762Z,981.1
2019-05-09T04:06:15.244Z,981.0
2019-05-09T04:09:17.799Z,981.0
2019-05-09T04:15:27.475Z,981.1
2019-05-09T04:18:17.653Z,981.1
2019-05-09T04:21:17.454Z,981.1
2019-05-09T04:24:17.686Z,981.1
2019-05-09T04:27:17.781Z,981.2
2019-05-09T04:30:15.686Z,981.2
2019-05-09T04:33:17.589Z,981.2
2019-05-09T04:36:15.524Z,981.2
2019-05-09T04:39:18.953Z,981.2
2019-05-09T04:42:18.361Z,981.1
2019-05-09T04:45:17.721Z,981.2
2019-05-09T04:48:20.357Z,981.2
2019-05-09T04:51:15.057Z,981.1
2019-05-09T04:54:17.768Z,981.2
2019-05-09T04:57:17.701Z,981.1
2019-05-09T05:00:15.569Z,981.1
2019-05-09T05:03:18.866Z,981.1
2019-05-09T05:06:18.747Z,981.2
2019-05-09T05:09:15.654Z,981.2
2019-05-09T05:12:15.024Z,981.2
2019-05-09T05:15:15.419Z,981.2
2019-05-09T05:18:17.358Z,981.2
2019-05-09T05:21:19.767Z,981.1
2019-05-09T05:24:15.107Z,981.0
2019-05-09T05:27:15.628Z,981.1
2019-05-09T05:30:15.035Z,981.1
2019-05-09T05:33:14.956Z,981.1
2019-05-09T05:36:17.999Z,981.1
2019-05-09T05:39:15.150Z,981.1
2019-05-09T05:42:17.516Z,981.2
2019-05-09T05:45:15.168Z,981.1
2019-05-09T05:48:17.534Z,981.1
2019-05-09T05:51:15.022Z,981.1
2019-05-09T05:54:15.353Z,981.2
2019-05-09T05:57:14.918Z,981.1
2019-05-09T06:00:17.910Z,981.2
2019-05-09T06:03:17.669Z,981.1
2019-05-09T06:06:17.376Z,981.1
2019-05-09T06:09:15.760Z,981.1
2019-05-09T06:12:15.120Z,981.2
2019-05-09T06:15:18.029Z,981.2
2019-05-09T06:18:15.023Z,981.3
2019-05-09T06:21:17.585Z,981.3
2019-05-09T06:24:17.528Z,981.2
2019-05-09T06:27:15.182Z,981.3
2019-05-09T06:30:17.542Z,981.2
2019-05-09T06:33:17.825Z,981.4
2019-05-09T06:36:15.668Z,981.3
2019-05-09T06:39:15.060Z,981.3
2019-05-09T06:42:17.878Z,981.3
2019-05-09T06:45:17.852Z,981.3
2019-05-09T06:48:17.939Z,981.4
2019-05-09T06:51:20.444Z,981.3
2019-05-09T06:54:17.331Z,981.3
2019-05-09T06:57:14.901Z,981.3
2019-05-09T07:00:17.794Z,981.4
2019-05-09T07:03:15.475Z,981.3
2019-05-09T07:06:17.808Z,981.3
2019-05-09T07:09:17.489Z,981.3
2019-05-09T07:12:17.932Z,981.3
2019-05-09T07:15:17.696Z,981.3
2019-05-09T07:18:15.526Z,981.3
2019-05-09T07:21:14.974Z,981.3
2019-05-09T07:24:15.075Z,981.2
2019-05-09T07:27:15.157Z,981.1
2019-05-09T07:30:17.835Z,981.0
2019-05-09T07:33:15.225Z,980.9
2019-05-09T07:36:15.804Z,980.9
2019-05-09T07:39:17.438Z,980.9
2019-05-09T07:42:15.015Z,980.8
2019-05-09T07:45:14.950Z,980.8
2019-05-09T07:48:18.015Z,980.8
2019-05-09T07:51:15.409Z,980.8
2019-05-09T07:54:24.515Z,980.7
2019-05-09T07:57:14.997Z,980.7
2019-05-09T08:00:15.068Z,980.7
2019-05-09T08:03:15.189Z,980.7
2019-05-09T08:06:18.401Z,980.7
2019-05-09T08:09:15.184Z,980.6
2019-05-09T08:12:17.930Z,980.6
2019-05-09T08:15:17.428Z,980.6
2019-05-09T08:18:17.467Z,980.6
2019-05-09T08:21:15.263Z,980.7
2019-05-09T08:24:15.013Z,980.7
2019-05-09T08:27:17.495Z,980.7
2019-05-09T08:30:17.809Z,980.8
2019-05-09T08:33:18.283Z,980.7
2019-05-09T08:36:14.962Z,980.7
2019-05-09T08:39:18.382Z,980.7
2019-05-09T08:42:17.937Z,980.7
2019-05-09T08:45:26.991Z,980.7
2019-05-09T08:48:15.111Z,980.7
2019-05-09T08:51:14.940Z,980.7
2019-05-09T08:54:15.359Z,980.6
2019-05-09T08:57:15.340Z,980.6
2019-05-09T09:00:15.523Z,980.6
2019-05-09T09:03:15.343Z,980.6
2019-05-09T09:06:15.127Z,980.6
2019-05-09T09:09:17.886Z,980.5
2019-05-09T09:12:27.048Z,980.7
2019-05-09T09:15:15.227Z,980.6
2019-05-09T09:18:17.695Z,980.4
2019-05-09T09:21:18.389Z,980.4
2019-05-09T09:24:15.092Z,980.3
2019-05-09T09:27:17.947Z,980.6
2019-05-09T09:30:20.922Z,980.4
2019-05-09T09:33:17.486Z,980.3
2019-05-09T09:36:17.676Z,980.4
2019-05-09T09:39:15.573Z,980.3
2019-05-09T09:42:19.457Z,980.3
2019-05-09T09:45:18.390Z,980.3
2019-05-09T09:48:38.661Z,980.3
2019-05-09T09:51:18.639Z,980.4
2019-05-09T09:54:35.374Z,980.3
2019-05-09T09:57:28.862Z,980.3
2019-05-09T10:00:18.063Z,980.3
2019-05-09T10:03:20.336Z,980.3
2019-05-09T10:06:22.593Z,980.2
2019-05-09T10:09:17.614Z,980.2
2019-05-09T10:12:21.556Z,980.1
2019-05-09T10:15:18.867Z,980.1
2019-05-09T10:18:27.577Z,980.1
2019-05-09T10:21:27.932Z,980.1
2019-05-09T10:24:32.679Z,980.1
2019-05-09T10:27:18.309Z,980.0
2019-05-09T10:30:19.888Z,980.0
2019-05-09T10:33:17.543Z,980.0
2019-05-09T10:36:16.210Z,980.0
2019-05-09T10:39:15.771Z,980.1
2019-05-09T10:42:15.356Z,980.1
2019-05-09T10:45:17.877Z,980.1
2019-05-09T10:48:15.049Z,980.1
2019-05-09T10:51:18.405Z,980.2
2019-05-09T10:54:15.241Z,980.0
2019-05-09T10:57:15.952Z,980.0
2019-05-09T11:00:15.029Z,980.0
2019-05-09T11:03:17.911Z,980.1
2019-05-09T11:06:18.126Z,979.9
2019-05-09T11:09:15.011Z,979.8
2019-05-09T11:12:17.894Z,979.8
2019-05-09T11:15:17.789Z,979.9
2019-05-09T11:18:15.661Z,979.8
2019-05-09T11:21:18.857Z,979.7
2019-05-09T11:24:15.027Z,979.7
2019-05-09T11:27:15.488Z,979.6
2019-05-09T11:30:17.631Z,979.6
2019-05-09T11:33:15.473Z,979.5
2019-05-09T11:36:15.512Z,979.5
2019-05-09T11:39:15.134Z,979.5
2019-05-09T11:42:17.807Z,979.6
2019-05-09T11:45:17.752Z,979.4
2019-05-09T11:48:15.629Z,979.5
2019-05-09T11:51:20.454Z,979.5
2019-05-09T11:54:17.241Z,979.5
2019-05-09T11:57:15.312Z,979.4
2019-05-09T12:00:15.068Z,979.4
2019-05-09T12:03:15.017Z,979.4
2019-05-09T12:06:16.161Z,979.4
2019-05-09T12:09:15.106Z,979.4
2019-05-09T12:12:15.596Z,979.3
2019-05-09T12:15:15.521Z,979.3
2019-05-09T12:18:15.647Z,979.3
2019-05-09T12:21:19.019Z,979.3
2019-05-09T12:24:15.038Z,979.1
2019-05-09T12:27:15.107Z,979.2
2019-05-09T12:30:15.731Z,979.2
2019-05-09T12:33:15.287Z,979.2
2019-05-09T12:36:15.640Z,979.1
2019-05-09T12:39:18.552Z,979.0
2019-05-09T12:42:20.918Z,979.1
2019-05-09T12:45:17.861Z,979.1
2019-05-09T12:48:15.985Z,979.1
2019-05-09T12:51:15.447Z,979.1
2019-05-09T12:54:15.082Z,979.1
2019-05-09T12:57:15.570Z,979.1
2019-05-09T13:00:15.566Z,979.1
2019-05-09T13:03:17.781Z,979.1
2019-05-09T13:06:19.519Z,979.1
2019-05-09T13:09:17.608Z,979.1
2019-05-09T13:12:17.890Z,979.1
2019-05-09T13:15:15.254Z,979.1
2019-05-09T13:18:22.772Z,979.1
2019-05-09T13:21:15.708Z,979.1
2019-05-09T13:24:19.259Z,979.1
2019-05-09T13:27:15.044Z,979.1
2019-05-09T13:30:15.783Z,979.1
2019-05-09T13:33:15.444Z,979.2
2019-05-09T13:36:15.217Z,979.2
2019-05-09T13:39:15.146Z,979.2
2019-05-09T13:42:19.185Z,979.2
2019-05-09T13:45:15.574Z,979.3
2019-05-09T13:48:32.108Z,979.3
2019-05-09T13:51:18.086Z,979.2
2019-05-09T13:54:18.248Z,979.2
2019-05-09T13:57:15.107Z,979.3
2019-05-09T14:00:18.150Z,979.3
2019-05-09T14:03:20.470Z,979.3
2019-05-09T14:06:15.075Z,979.4
2019-05-09T14:09:15.706Z,979.4
2019-05-09T14:12:17.502Z,979.5
2019-05-09T14:15:15.242Z,979.6
2019-05-09T14:18:16.645Z,979.7
2019-05-09T14:21:15.700Z,979.7
2019-05-09T14:24:19.054Z,979.8
2019-05-09T14:27:15.349Z,979.8
2019-05-09T14:30:15.767Z,979.8
2019-05-09T14:33:15.530Z,980.0
2019-05-09T14:36:15.190Z,980.0
2019-05-09T14:39:15.293Z,980.0
2019-05-09T14:42:14.948Z,980.0
2019-05-09T14:45:18.019Z,980.0
2019-05-09T14:48:14.888Z,980.2
2019-05-09T14:51:15.321Z,980.2
2019-05-09T14:54:15.077Z,980.3
2019-05-09T14:57:17.540Z,980.3
2019-05-09T15:00:15.308Z,980.4
2019-05-09T15:03:15.352Z,980.5
2019-05-09T15:06:15.204Z,980.5
2019-05-09T15:09:18.056Z,980.5
2019-05-09T15:12:18.456Z,980.6
2019-05-09T15:15:15.341Z,980.6
2019-05-09T15:18:17.518Z,980.6
2019-05-09T15:21:16.195Z,980.7
2019-05-09T15:36:15.908Z,980.9
2019-05-09T15:42:52.921Z,981.0
2019-05-09T15:50:24.057Z,981.1
2019-05-09T15:54:17.186Z,981.2
2019-05-09T15:57:17.540Z,981.3
2019-05-09T16:00:18.631Z,981.3
2019-05-09T16:03:15.529Z,981.4
2019-05-09T16:06:18.287Z,981.5
2019-05-09T16:09:14.943Z,981.6
2019-05-09T16:12:15.134Z,981.6
2019-05-09T16:15:18.054Z,981.7
2019-05-09T16:18:15.138Z,981.7
2019-05-09T16:21:15.412Z,981.8
2019-05-09T16:24:14.914Z,981.8
2019-05-09T16:27:15.775Z,981.8
2019-05-09T16:30:15.452Z,981.9
2019-05-09T16:33:15.081Z,981.9
2019-05-09T16:36:17.591Z,982.0
2019-05-09T16:39:15.175Z,982.1
2019-05-09T16:42:14.878Z,982.2
2019-05-09T16:45:15.355Z,982.1
2019-05-09T16:48:15.354Z,982.1
2019-05-09T16:51:15.331Z,982.2
2019-05-09T16:54:17.845Z,982.2
2019-05-09T16:57:14.997Z,982.2
2019-05-09T17:00:18.202Z,982.3
2019-05-09T17:03:17.657Z,982.2
2019-05-09T17:06:18.250Z,982.3
2019-05-09T17:09:15.158Z,982.3
2019-05-09T17:12:15.142Z,982.4
2019-05-09T17:15:17.225Z,982.4
2019-05-09T17:18:15.371Z,982.4
2019-05-09T17:21:18.736Z,982.5
2019-05-09T17:24:15.311Z,982.5
2019-05-09T17:27:15.303Z,982.5
2019-05-09T17:30:15.046Z,982.6
2019-05-09T17:33:15.361Z,982.6
2019-05-09T17:36:15.395Z,982.7
2019-05-09T17:39:15.137Z,982.8
2019-05-09T17:42:15.623Z,982.8
2019-05-09T17:45:15.455Z,982.8
2019-05-09T17:48:15.098Z,982.9
2019-05-09T17:51:18.665Z,982.9
2019-05-09T17:54:18.111Z,982.9
2019-05-09T17:57:14.937Z,983.0
2019-05-09T18:00:19.482Z,983.0
2019-05-09T18:03:18.026Z,983.1
2019-05-09T18:06:15.928Z,983.1
2019-05-09T18:09:15.701Z,983.2
2019-05-09T18:12:15.622Z,983.2
2019-05-09T18:15:15.282Z,983.3
2019-05-09T18:18:15.054Z,983.3
2019-05-09T18:21:15.016Z,983.3
2019-05-09T18:24:17.648Z,983.3
2019-05-09T18:27:15.400Z,983.3
2019-05-09T18:30:15.842Z,983.4
2019-05-09T18:33:15.500Z,983.5
2019-05-09T18:36:15.833Z,983.4
2019-05-09T18:39:18.489Z,983.5
2019-05-09T18:42:17.714Z,983.6
2019-05-09T18:45:32.554Z,983.7
2019-05-09T18:48:21.877Z,983.8
2019-05-09T18:54:46.907Z,983.9
2019-05-09T18:57:15.361Z,983.9
2019-05-09T19:00:26.706Z,983.9
2019-05-09T19:06:21.751Z,984.0
2019-05-09T19:09:16.249Z,984.1
2019-05-09T19:15:46.337Z,984.1
2019-05-09T19:19:42.170Z,984.2
2019-05-09T19:21:15.915Z,984.2
2019-05-09T19:24:23.320Z,984.2
2019-05-09T19:27:16.197Z,984.3
2019-05-09T19:30:22.611Z,984.4
2019-05-09T19:33:18.620Z,984.4
2019-05-09T19:39:16.303Z,984.5
2019-05-09T19:42:22.960Z,984.5
2019-05-09T19:45:18.118Z,984.5
2019-05-09T19:54:34.275Z,984.7
2019-05-09T19:57:23.401Z,984.7
2019-05-09T20:00:19.469Z,984.7
2019-05-09T20:03:21.409Z,984.8
2019-05-09T20:06:19.929Z,984.8
2019-05-09T20:09:15.737Z,984.9
2019-05-09T20:12:15.607Z,984.9
2019-05-09T20:15:15.032Z,985.0
2019-05-09T20:18:15.071Z,985.1
2019-05-09T20:21:15.234Z,985.1
2019-05-09T20:24:43.021Z,985.2
2019-05-09T20:27:15.954Z,985.3
2019-05-09T20:30:24.640Z,985.3
2019-05-09T20:33:17.179Z,985.4
2019-05-09T20:36:15.397Z,985.4
2019-05-09T20:39:31.996Z,985.5
2019-05-09T20:42:26.405Z,985.5
2019-05-09T20:48:15.547Z,985.7
2019-05-09T20:51:15.096Z,985.7
2019-05-09T20:54:21.226Z,985.8
2019-05-09T20:57:15.056Z,985.8
2019-05-09T21:00:15.538Z,985.7
2019-05-09T21:03:15.017Z,985.8
2019-05-09T21:06:15.450Z,985.9
2019-05-09T21:09:15.112Z,985.9
2019-05-09T21:12:15.578Z,986.1
2019-05-09T21:15:15.005Z,986.0
2019-05-09T21:18:15.470Z,986.1
2019-05-09T21:21:15.247Z,986.1
2019-05-09T21:24:15.819Z,986.1
2019-05-09T21:27:15.267Z,986.2
2019-05-09T21:30:15.709Z,986.3
2019-05-09T21:33:15.136Z,986.3
2019-05-09T21:36:15.498Z,986.3
2019-05-09T21:39:15.015Z,986.4
2019-05-09T21:42:15.374Z,986.4
2019-05-09T21:45:15.705Z,986.5
2019-05-09T21:48:15.131Z,986.5
2019-05-09T21:51:15.532Z,986.5
2019-05-09T21:54:14.917Z,986.5
2019-05-09T21:57:15.470Z,986.6
2019-05-09T22:00:14.879Z,986.6
2019-05-09T22:03:15.675Z,986.6
2019-05-09T22:06:15.250Z,986.6
2019-05-09T22:09:15.593Z,986.5
2019-05-09T22:12:14.969Z,986.6
2019-05-09T22:15:15.256Z,986.7
2019-05-09T22:18:15.810Z,986.7
2019-05-09T22:21:15.081Z,986.7
2019-05-09T22:24:15.443Z,986.8
2019-05-09T22:27:15.756Z,986.8
2019-05-09T22:30:15.257Z,986.8
2019-05-09T22:33:14.909Z,986.8
2019-05-09T22:36:15.407Z,986.9
2019-05-09T22:39:15.725Z,986.9
2019-05-09T22:42:15.066Z,986.9
2019-05-09T22:45:15.490Z,986.8
2019-05-09T22:48:14.954Z,986.8
2019-05-09T22:51:15.314Z,986.9
2019-05-09T22:54:15.602Z,986.9
2019-05-09T22:57:15.802Z,987.0
2019-05-09T23:00:15.141Z,986.9
2019-05-09T23:03:15.665Z,986.9
2019-05-09T23:06:15.094Z,987.0
2019-05-09T23:09:15.323Z,987.0
2019-05-09T23:12:15.579Z,987.0
2019-05-09T23:15:15.921Z,987.0
2019-05-09T23:18:15.363Z,987.0
2019-05-09T23:21:15.801Z,987.1
2019-05-09T23:24:27.508Z,987.2
2019-05-09T23:27:15.488Z,987.2
2019-05-09T23:30:15.918Z,987.2
2019-05-09T23:33:15.248Z,987.1
2019-05-09T23:36:15.641Z,987.1
2019-05-09T23:39:14.858Z,987.2
2019-05-09T23:42:15.474Z,987.2
2019-05-09T23:45:15.795Z,987.2
2019-05-09T23:48:15.058Z,987.2
2019-05-09T23:51:15.606Z,987.3
2019-05-09T23:54:15.622Z,987.3
2019-05-09T23:57:15.031Z,987.3
